createdAt,value
2023-04-09T00:00:41.683Z,50.50
2023-04-09T00:05:44.564Z,44.80
2023-04-09T00:10:47.231Z,39.65
2023-04-09T00:15:50.129Z,44.33
2023-04-09T00:20:52.741Z,42.28
2023-04-09T00:25:55.412Z,55.15
2023-04-09T00:30:58.002Z,48.07
2023-04-09T00:36:00.656Z,41.55
2023-04-09T00:41:03.567Z,46.42
2023-04-09T00:46:06.523Z,49.60
2023-04-09T00:51:09.466Z,61.45
2023-04-09T00:56:13.764Z,62.70
2023-04-09T01:01:16.644Z,72.65
2023-04-09T01:06:46.310Z,72.30
2023-04-09T01:12:18.564Z,54.85
2023-04-09T01:17:34.112Z,50.92
2023-04-09T01:22:50.489Z,55.90
2023-04-09T01:28:17.169Z,41.97
2023-04-09T01:33:21.680Z,43.03
2023-04-09T01:38:25.852Z,50.03
2023-04-09T01:43:28.957Z,46.45
2023-04-09T01:48:33.478Z,44.23
2023-04-09T01:53:36.973Z,49.75
2023-04-09T01:58:41.141Z,54.22
2023-04-09T02:03:55.684Z,42.08
2023-04-09T02:09:00.874Z,43.72
2023-04-09T02:14:04.695Z,47.40
2023-04-09T02:19:07.290Z,35.92
2023-04-09T02:24:10.141Z,49.38
2023-04-09T02:29:13.503Z,54.15
2023-04-09T02:34:16.090Z,57.05
2023-04-09T02:39:19.220Z,43.37
2023-04-09T02:44:22.061Z,54.30
2023-04-09T02:49:24.910Z,55.65
2023-04-09T02:54:27.650Z,39.10
2023-04-09T02:59:30.309Z,54.58
2023-04-09T03:04:33.067Z,45.23
2023-04-09T03:09:35.889Z,48.20
2023-04-09T03:14:38.448Z,45.72
2023-04-09T03:19:41.108Z,48.15
2023-04-09T03:24:44.076Z,43.22
2023-04-09T03:29:47.307Z,53.33
2023-04-09T03:34:51.179Z,43.33
2023-04-09T03:39:56.756Z,53.30
2023-04-09T03:45:02.804Z,45.45
2023-04-09T03:50:11.212Z,51.30
2023-04-09T03:55:22.988Z,50.80
2023-04-09T04:00:26.944Z,51.10
2023-04-09T04:05:49.236Z,47.63
2023-04-09T04:10:52.775Z,53.08
2023-04-09T04:15:56.373Z,49.65
2023-04-09T04:21:00.030Z,51.57
2023-04-09T04:26:10.148Z,58.38
2023-04-09T04:31:13.686Z,57.40
2023-04-09T04:36:17.031Z,48.75
2023-04-09T04:41:26.260Z,52.30
2023-04-09T04:46:43.953Z,55.37
2023-04-09T04:51:47.317Z,60.97
2023-04-09T04:56:51.921Z,55.28
2023-04-09T05:02:09.631Z,60.47
2023-04-09T05:07:23.188Z,57.83
2023-04-09T05:12:32.529Z,58.17
2023-04-09T05:17:36.654Z,55.13
2023-04-09T05:22:40.333Z,46.20
2023-04-09T05:27:43.698Z,45.95
2023-04-09T05:32:47.006Z,52.03
2023-04-09T05:37:51.563Z,44.83
2023-04-09T05:42:54.346Z,53.67
2023-04-09T05:48:04.797Z,54.55
2023-04-09T05:53:07.917Z,50.03
2023-04-09T05:58:16.343Z,52.33
2023-04-09T06:03:19.474Z,48.57
2023-04-09T06:08:22.939Z,45.85
2023-04-09T06:13:26.069Z,41.63
2023-04-09T06:18:29.024Z,36.38
2023-04-09T06:23:32.366Z,42.47
2023-04-09T06:28:35.087Z,36.97
2023-04-09T06:33:37.858Z,42.92
2023-04-09T06:38:40.706Z,44.05
2023-04-09T06:43:43.467Z,38.10
2023-04-09T06:48:46.903Z,45.42
2023-04-09T06:53:50.052Z,54.40
2023-04-09T06:58:52.997Z,39.40
2023-04-09T07:03:56.244Z,47.45
2023-04-09T07:08:59.385Z,49.92
2023-04-09T07:14:02.044Z,45.58
2023-04-09T07:19:06.580Z,44.57
2023-04-09T07:24:09.701Z,25.60
2023-04-09T07:29:12.882Z,44.47
2023-04-09T07:34:15.867Z,42.50
2023-04-09T07:39:19.644Z,34.63
2023-04-09T07:44:22.648Z,39.83
2023-04-09T07:49:25.503Z,30.75
2023-04-09T07:54:28.780Z,35.55
2023-04-09T07:59:31.995Z,31.77
2023-04-09T08:04:35.030Z,31.40
2023-04-09T08:09:37.882Z,29.00
2023-04-09T08:14:41.617Z,25.55
2023-04-09T08:19:44.475Z,27.45
2023-04-09T08:24:52.238Z,30.27
2023-04-09T08:29:55.063Z,29.77
2023-04-09T08:34:57.944Z,30.40
2023-04-09T08:40:00.955Z,32.33
2023-04-09T08:45:07.246Z,29.55
2023-04-09T08:50:10.462Z,31.90
2023-04-09T08:55:13.526Z,26.77
2023-04-09T09:00:16.245Z,26.47
2023-04-09T09:05:37.122Z,22.92
2023-04-09T09:10:39.948Z,22.15
2023-04-09T09:15:42.848Z,22.58
2023-04-09T09:20:45.906Z,24.77
2023-04-09T09:25:48.582Z,22.20
2023-04-09T09:30:52.061Z,24.10
2023-04-09T09:35:57.961Z,22.30
2023-04-09T09:41:18.168Z,23.90
2023-04-09T09:46:22.490Z,22.80
2023-04-09T09:51:29.915Z,23.30
2023-04-09T09:56:37.403Z,25.42
2023-04-09T10:01:41.535Z,22.38
2023-04-09T10:06:45.678Z,22.92
2023-04-09T10:11:49.916Z,25.90
2023-04-09T10:16:52.820Z,18.53
2023-04-09T10:22:04.760Z,21.10
2023-04-09T10:27:14.290Z,18.85
2023-04-09T10:32:22.148Z,16.95
2023-04-09T10:37:26.993Z,20.77
2023-04-09T10:42:42.305Z,17.90
2023-04-09T10:47:46.539Z,20.48
2023-04-09T10:52:54.062Z,20.80
2023-04-09T10:57:57.017Z,20.20
2023-04-09T11:03:22.973Z,18.67
2023-04-09T11:08:30.329Z,18.30
2023-04-09T11:13:34.621Z,18.52
2023-04-09T11:18:37.678Z,19.02
2023-04-09T11:23:40.554Z,21.38
2023-04-09T11:28:44.323Z,22.50
2023-04-09T11:33:47.529Z,19.07
2023-04-09T11:38:53.459Z,19.23
2023-04-09T11:43:56.373Z,22.75
2023-04-09T11:48:59.739Z,20.65
2023-04-09T11:54:03.735Z,21.08
2023-04-09T11:59:06.590Z,23.47
2023-04-09T12:04:09.799Z,22.17
2023-04-09T12:09:14.448Z,20.85
2023-04-09T12:14:18.856Z,21.33
2023-04-09T12:19:25.710Z,21.63
2023-04-09T12:24:29.194Z,22.90
2023-04-09T12:29:33.597Z,21.90
2023-04-09T12:34:36.501Z,19.90
2023-04-09T12:39:39.212Z,21.15
2023-04-09T12:44:42.126Z,20.50
2023-04-09T12:49:46.982Z,21.97
2023-04-09T12:54:49.723Z,21.15
2023-04-09T12:59:52.564Z,17.98
2023-04-09T13:04:55.290Z,16.77
2023-04-09T13:09:58.446Z,18.55
2023-04-09T13:15:01.763Z,19.77
2023-04-09T13:20:06.479Z,18.77
2023-04-09T13:25:09.535Z,18.33
2023-04-09T13:30:12.577Z,20.02
2023-04-09T13:35:15.582Z,15.90
2023-04-09T13:40:18.444Z,14.83
2023-04-09T13:45:24.603Z,16.35
2023-04-09T13:50:27.310Z,14.00
2023-04-09T13:55:31.179Z,14.98
2023-04-09T14:00:34.746Z,16.42
2023-04-09T14:05:37.595Z,13.97
2023-04-09T14:10:40.503Z,13.85
2023-04-09T14:15:45.577Z,13.90
2023-04-09T14:20:48.362Z,15.30
2023-04-09T14:25:51.560Z,16.85
2023-04-09T14:30:54.628Z,15.83
2023-04-09T14:35:59.047Z,14.20
2023-04-09T14:41:02.169Z,15.27
2023-04-09T14:46:06.618Z,15.55
2023-04-09T14:51:12.548Z,14.43
2023-04-09T14:56:15.257Z,14.87
2023-04-09T15:01:18.103Z,14.02
2023-04-09T15:06:21.053Z,14.02
2023-04-09T15:11:24.185Z,14.50
2023-04-09T15:16:29.266Z,16.58
2023-04-09T15:21:32.069Z,11.97
2023-04-09T15:26:37.697Z,13.35
2023-04-09T15:31:41.565Z,11.98
2023-04-09T15:36:46.312Z,14.60
2023-04-09T15:41:49.110Z,15.52
2023-04-09T15:46:52.018Z,13.77
2023-04-09T15:51:54.815Z,15.80
2023-04-09T15:56:57.901Z,16.02
2023-04-09T16:02:01.081Z,14.57
2023-04-09T16:07:04.505Z,22.55
2023-04-09T16:12:07.447Z,16.57
2023-04-09T16:17:13.464Z,16.10
2023-04-09T16:22:16.823Z,14.80
2023-04-09T16:27:19.840Z,17.52
2023-04-09T16:32:22.871Z,15.25
2023-04-09T16:37:25.696Z,17.57
2023-04-09T16:42:30.503Z,17.33
2023-04-09T16:47:33.561Z,20.35
2023-04-09T16:52:39.806Z,23.73
2023-04-09T16:57:43.167Z,22.85
2023-04-09T17:02:46.549Z,21.77
2023-04-09T17:07:49.589Z,18.27
2023-04-09T17:12:52.222Z,24.40
2023-04-09T17:17:55.477Z,22.10
2023-04-09T17:22:58.458Z,25.08
2023-04-09T17:28:01.940Z,20.40
2023-04-09T17:33:04.913Z,23.98
2023-04-09T17:38:07.619Z,22.40
2023-04-09T17:43:10.408Z,25.48
2023-04-09T17:48:13.100Z,26.92
2023-04-09T17:53:15.800Z,26.07
2023-04-09T17:58:18.478Z,31.00
2023-04-09T18:03:21.933Z,28.42
2023-04-09T18:08:25.747Z,35.53
2023-04-09T18:13:28.727Z,31.80
2023-04-09T18:18:31.635Z,33.10
2023-04-09T18:23:34.773Z,37.55
2023-04-09T18:28:37.767Z,31.45
2023-04-09T18:33:40.860Z,31.73
2023-04-09T18:38:44.510Z,32.38
2023-04-09T18:43:48.621Z,31.77
2023-04-09T18:48:51.937Z,33.20
2023-04-09T18:53:55.090Z,34.72
2023-04-09T18:58:57.910Z,35.75
2023-04-09T19:04:01.124Z,37.60
2023-04-09T19:09:04.926Z,44.23
2023-04-09T19:14:07.771Z,32.33
2023-04-09T19:19:12.161Z,37.03
2023-04-09T19:24:14.969Z,35.60
2023-04-09T19:29:17.857Z,38.55
2023-04-09T19:34:20.786Z,30.83
2023-04-09T19:39:23.795Z,29.92
2023-04-09T19:44:26.683Z,27.13
2023-04-09T19:49:29.682Z,27.92
2023-04-09T19:54:34.522Z,31.17
2023-04-09T19:59:40.097Z,28.13
2023-04-09T20:04:43.496Z,34.75
2023-04-09T20:09:47.201Z,40.95
2023-04-09T20:14:50.326Z,50.45
2023-04-09T20:19:53.870Z,49.15
2023-04-09T20:24:56.982Z,40.67
2023-04-09T20:29:59.949Z,47.50
2023-04-09T20:35:02.733Z,41.08
2023-04-09T20:40:06.044Z,44.35
2023-04-09T20:45:09.840Z,40.97
2023-04-09T20:50:12.858Z,43.80
2023-04-09T20:55:16.320Z,44.97
2023-04-09T21:00:19.529Z,41.15
2023-04-09T21:05:24.237Z,50.03
2023-04-09T21:10:27.634Z,44.58
2023-04-09T21:15:30.723Z,46.50
2023-04-09T21:20:33.560Z,43.75
2023-04-09T21:25:36.430Z,38.85
2023-04-09T21:30:39.248Z,40.00
2023-04-09T21:35:42.059Z,36.70
2023-04-09T21:40:47.076Z,39.53
2023-04-09T21:45:49.827Z,39.70
2023-04-09T21:50:54.172Z,31.65
2023-04-09T21:55:56.953Z,34.42
2023-04-09T22:00:59.740Z,39.88
2023-04-09T22:06:02.755Z,41.13
2023-04-09T22:11:06.260Z,38.15
2023-04-09T22:16:09.394Z,38.92
2023-04-09T22:21:18.804Z,38.22
2023-04-09T22:26:22.288Z,41.83
2023-04-09T22:31:27.600Z,38.83
2023-04-09T22:36:30.351Z,38.00
2023-04-09T22:41:33.142Z,40.67
2023-04-09T22:46:36.882Z,38.75
2023-04-09T22:51:41.715Z,36.25
2023-04-09T22:56:45.025Z,39.57
2023-04-09T23:01:47.797Z,41.65
2023-04-09T23:06:50.763Z,38.45
2023-04-09T23:11:53.644Z,37.05
2023-04-09T23:16:56.568Z,39.38
2023-04-09T23:21:59.079Z,39.90
2023-04-09T23:27:02.683Z,37.65
2023-04-09T23:32:05.455Z,39.40
2023-04-09T23:37:09.532Z,40.72
2023-04-09T23:42:12.062Z,32.40
2023-04-09T23:47:14.786Z,38.07
2023-04-09T23:52:17.438Z,36.53
2023-04-09T23:57:20.047Z,39.28
